Time;durP1;ratioP1;P1;durP2;ratioP2;P2;SDS_P1;SDS_P2;PMS_P1;PMS_P2;Temp;Humidity;BMP_temperature;BMP_pressure;BME280_temperature;BME280_humidity;BME280_pressure;Samples;Min_cycle;Max_cycle;Signal;HPM_P1;HPM_P2
2022/01/27 00:05:05;;;;;;;19.98;10.60;;;;;;;-0.04;82.80;99217.81;5094560;28;20108;-71
2022/01/27 00:07:32;;;;;;;20.35;9.90;;;;;;;-0.04;83.07;99202.47;5109760;28;20024;-72
2022/01/27 00:10:25;;;;;;;21.95;10.57;;;;;;;-0.01;82.88;99190.44;5111762;27;20087;-72
2022/01/27 00:12:51;;;;;;;19.60;9.45;;;;;;;0.04;82.95;99198.72;5113004;28;20398;-71
2022/01/27 00:15:17;;;;;;;20.63;10.10;;;;;;;0.02;82.77;99205.38;5111462;28;20031;-72
2022/01/27 00:17:55;;;;;;;22.90;11.20;;;;;;;0.02;82.56;99208.88;5112156;28;20075;-72
2022/01/27 00:20:21;;;;;;;20.05;10.38;;;;;;;0.01;82.42;99192.91;5112066;28;20719;-73
2022/01/27 00:22:46;;;;;;;19.30;10.13;;;;;;;0.03;82.14;99207.03;5112482;28;20032;-72
2022/01/27 00:25:12;;;;;;;21.52;10.70;;;;;;;0.00;82.28;99194.81;5112954;28;20057;-70
2022/01/27 00:27:37;;;;;;;21.77;10.32;;;;;;;-0.01;82.62;99191.25;5110670;28;20035;-69
2022/01/27 00:30:05;;;;;;;23.60;11.63;;;;;;;-0.05;82.37;99183.81;5092997;28;21435;-71
2022/01/27 00:32:32;;;;;;;21.65;10.32;;;;;;;-0.10;82.29;99189.81;5094076;28;20032;-71
2022/01/27 00:34:59;;;;;;;16.77;8.57;;;;;;;-0.12;82.36;99189.19;5092688;28;20020;-71
2022/01/27 00:37:25;;;;;;;19.83;10.40;;;;;;;-0.12;82.06;99194.56;5111117;28;20024;-71
2022/01/27 00:39:50;;;;;;;18.20;9.73;;;;;;;-0.13;82.22;99195.63;5112282;28;20031;-72
2022/01/27 00:42:16;;;;;;;18.92;10.27;;;;;;;-0.12;81.97;99193.75;5112334;28;20050;-71
2022/01/27 00:44:41;;;;;;;18.85;10.02;;;;;;;-0.11;82.53;99187.34;5111363;28;20813;-71
2022/01/27 00:47:07;;;;;;;21.27;10.23;;;;;;;-0.12;82.57;99186.47;5111685;28;20479;-71
2022/01/27 00:49:33;;;;;;;18.83;9.82;;;;;;;-0.13;82.35;99184.81;5111880;28;20023;-71
2022/01/27 00:52:01;;;;;;;17.08;8.90;;;;;;;-0.11;82.01;99181.94;5111846;28;20035;-71
2022/01/27 00:54:28;;;;;;;18.08;9.73;;;;;;;-0.10;81.92;99172.81;5111946;28;20028;-72
2022/01/27 01:01:57;;;;;;;37.67;13.95;;;;;;;-0.18;81.53;99154.97;5111782;28;20448;-71
2022/01/27 01:04:28;;;;;;;86.22;28.35;;;;;;;-0.21;82.05;99153.53;5111943;28;20028;-72
2022/01/27 01:06:54;;;;;;;70.70;23.88;;;;;;;-0.25;82.33;99151.47;5112164;28;20031;-71
2022/01/27 01:14:48;;;;;;;26.90;11.40;;;;;;;-0.28;82.01;99173.44;5112886;28;20092;-72
2022/01/27 01:20:03;;;;;;;20.30;11.10;;;;;;;-0.29;82.44;99161.81;5108312;28;20040;-71
2022/01/27 01:33:11;;;;;;;34.03;14.10;;;;;;;-0.26;82.42;99149.81;5112444;28;20130;-71
2022/01/27 01:35:51;;;;;;;;;;;;;;;-0.26;82.19;99147.13;5093907;28;20391;-71
2022/01/27 01:38:20;;;;;;;41.28;16.25;;;;;;;-0.25;82.22;99146.88;5112298;28;19956;-71
2022/01/27 01:40:51;;;;;;;41.00;15.60;;;;;;;-0.24;82.19;99150.44;5090175;28;20049;-72
2022/01/27 01:43:17;;;;;;;31.50;13.00;;;;;;;-0.24;82.13;99147.72;5112741;27;20043;-71
2022/01/27 01:45:43;;;;;;;31.60;14.00;;;;;;;-0.27;81.83;99146.25;5092859;28;20035;-71
2022/01/27 01:48:09;;;;;;;33.75;15.70;;;;;;;-0.28;82.23;99139.22;5110476;28;20047;-70
2022/01/27 01:50:35;;;;;;;39.88;17.40;;;;;;;-0.27;82.35;99145.44;5111375;28;20043;-70
2022/01/27 01:53:01;;;;;;;33.25;13.43;;;;;;;-0.24;82.06;99132.38;5111097;28;20028;-71
2022/01/27 01:55:26;;;;;;;28.88;12.10;;;;;;;-0.21;82.25;99131.16;5110272;28;20778;-70
2022/01/27 01:57:53;;;;;;;26.00;13.88;;;;;;;-0.20;82.55;99130.06;5109480;28;20042;-71
2022/01/27 02:00:19;;;;;;;29.63;14.98;;;;;;;-0.20;82.36;99122.84;5109745;28;20487;-71
2022/01/27 02:02:45;;;;;;;34.38;16.00;;;;;;;-0.17;82.52;99125.13;5107770;28;20441;-71
2022/01/27 02:05:11;;;;;;;31.40;14.80;;;;;;;-0.12;82.03;99123.66;5109492;28;20431;-71
2022/01/27 02:07:59;;;;;;;31.70;16.77;;;;;;;-0.12;82.59;99118.25;5108444;28;20040;-71
2022/01/27 02:18:21;;;;;;;36.78;16.70;;;;;;;-0.06;82.12;99120.13;5112110;27;20030;-71
2022/01/27 02:20:46;;;;;;;28.63;15.25;;;;;;;-0.07;82.29;99113.88;5110141;28;20395;-73
2022/01/27 02:23:12;;;;;;;35.33;18.52;;;;;;;-0.08;82.36;99106.84;5110292;28;20023;-73
2022/01/27 02:25:37;;;;;;;34.83;17.33;;;;;;;-0.10;82.15;99105.41;5110360;28;20055;-73
2022/01/27 02:28:03;;;;;;;36.30;18.65;;;;;;;-0.12;82.30;99100.19;5109656;28;20088;-74
2022/01/27 02:30:29;;;;;;;32.00;16.25;;;;;;;-0.10;82.35;99097.31;5110005;28;20028;-73
2022/01/27 02:32:55;;;;;;;29.90;15.60;;;;;;;-0.10;81.97;99108.09;5110128;28;20038;-73
2022/01/27 02:35:25;;;;;;;34.15;17.13;;;;;;;-0.10;82.29;99100.00;5110254;28;20024;-74
2022/01/27 02:37:52;;;;;;;32.42;16.15;;;;;;;-0.12;82.02;99100.19;5109787;28;20540;-74
2022/01/27 02:40:26;;;;;;;39.60;17.60;;;;;;;-0.11;82.00;99101.03;5090550;28;20102;-74
2022/01/27 02:42:53;;;;;;;35.88;17.35;;;;;;;-0.11;82.60;99095.66;5109316;28;20482;-73
2022/01/27 02:45:42;;;;;;;39.75;19.90;;;;;;;-0.15;82.03;99092.53;5108684;28;20710;-74
2022/01/27 02:48:07;;;;;;;34.80;17.75;;;;;;;-0.17;82.00;99103.53;5108811;28;20058;-73
2022/01/27 02:50:33;;;;;;;35.60;18.98;;;;;;;-0.17;82.12;99091.91;5110483;28;20032;-74
2022/01/27 02:52:58;;;;;;;40.17;20.45;;;;;;;-0.18;82.34;99082.16;5110169;28;20020;-73
2022/01/27 02:55:24;;;;;;;34.22;17.30;;;;;;;-0.15;82.81;99089.84;5091130;28;20016;-73
2022/01/27 02:57:49;;;;;;;40.20;22.08;;;;;;;-0.14;82.68;99096.06;5109387;28;20408;-73
2022/01/27 03:00:15;;;;;;;36.70;18.33;;;;;;;-0.11;82.52;99091.06;5110119;28;20114;-73
2022/01/27 03:02:41;;;;;;;34.78;17.10;;;;;;;-0.06;82.44;99091.28;5110102;28;20027;-74
2022/01/27 03:05:07;;;;;;;36.85;17.60;;;;;;;-0.06;82.76;99093.97;5109901;28;20414;-72
2022/01/27 03:07:32;;;;;;;36.25;18.05;;;;;;;-0.03;82.60;99100.81;5110619;28;20028;-73
2022/01/27 03:09:58;;;;;;;33.15;16.35;;;;;;;-0.04;82.48;99089.19;5114224;28;20027;-72
2022/01/27 03:12:26;;;;;;;34.53;17.45;;;;;;;-0.04;82.73;99091.91;5093598;28;20387;-72
2022/01/27 03:14:51;;;;;;;33.78;15.43;;;;;;;-0.02;81.88;99097.09;5114055;28;20032;-73
2022/01/27 03:17:17;;;;;;;29.63;14.07;;;;;;;-0.01;82.44;99093.34;5113705;28;20352;-73
2022/01/27 03:19:43;;;;;;;34.10;18.13;;;;;;;-0.05;82.32;99087.53;5114370;28;20035;-70
2022/01/27 03:22:09;;;;;;;33.15;17.80;;;;;;;-0.05;82.08;99087.53;5113829;28;20024;-70
2022/01/27 03:24:36;;;;;;;32.10;17.33;;;;;;;-0.07;82.36;99081.53;5113614;28;20054;-71
2022/01/27 03:27:06;;;;;;;29.10;16.75;;;;;;;-0.09;82.23;99080.91;5091026;28;20024;-70
2022/01/27 03:29:32;;;;;;;33.28;16.88;;;;;;;-0.08;82.66;99074.47;5095570;28;20058;-71
2022/01/27 03:31:57;;;;;;;31.58;16.27;;;;;;;-0.12;82.23;99075.13;5112411;28;20459;-71
2022/01/27 03:34:23;;;;;;;27.67;14.43;;;;;;;-0.14;82.13;99079.91;5093064;28;20115;-70
2022/01/27 03:36:49;;;;;;;29.75;15.15;;;;;;;-0.18;82.17;99085.72;5110730;28;20143;-71
2022/01/27 03:39:18;;;;;;;34.08;17.33;;;;;;;-0.21;82.33;99085.31;5112145;28;20042;-72
2022/01/27 03:41:49;;;;;;;33.05;15.85;;;;;;;-0.26;82.62;99085.09;5111208;28;20426;-71
2022/01/27 03:44:15;;;;;;;28.48;15.80;;;;;;;-0.28;82.11;99079.09;5113728;28;20395;-70
2022/01/27 03:46:41;;;;;;;30.52;14.88;;;;;;;-0.29;82.65;99080.13;5090335;28;20028;-70
2022/01/27 03:49:06;;;;;;;34.17;17.08;;;;;;;-0.32;82.15;99076.81;5112611;28;20028;-70
2022/01/27 03:51:32;;;;;;;34.92;17.30;;;;;;;-0.31;82.46;99078.47;5110103;28;20028;-71
2022/01/27 03:53:57;;;;;;;50.03;23.17;;;;;;;-0.30;82.33;99068.50;5091438;28;20032;-70
2022/01/27 03:56:23;;;;;;;39.92;20.23;;;;;;;-0.30;82.57;99057.72;5111195;28;20113;-70
2022/01/27 03:58:48;;;;;;;38.67;19.25;;;;;;;-0.30;82.78;99052.34;5110200;28;20037;-70
2022/01/27 04:01:14;;;;;;;34.05;17.55;;;;;;;-0.34;82.97;99059.19;5111297;28;20020;-71
2022/01/27 04:03:39;;;;;;;34.53;17.63;;;;;;;-0.34;82.99;99053.78;5113479;27;20037;-70
2022/01/27 04:06:09;;;;;;;33.95;17.13;;;;;;;-0.31;82.79;99056.06;5112792;27;20089;-71
2022/01/27 04:08:37;;;;;;;33.40;19.38;;;;;;;-0.31;82.50;99051.53;5112680;28;20134;-71
2022/01/27 04:11:04;;;;;;;30.63;15.95;;;;;;;-0.31;82.33;99053.38;5110775;28;20020;-71
2022/01/27 04:13:30;;;;;;;33.38;16.55;;;;;;;-0.32;82.68;99049.03;5112225;28;20031;-71
2022/01/27 04:15:55;;;;;;;33.15;15.77;;;;;;;-0.31;82.65;99035.34;5092393;28;20503;-71
2022/01/27 04:18:21;;;;;;;32.28;16.70;;;;;;;-0.30;82.55;99041.56;5109481;28;20051;-70
2022/01/27 04:20:46;;;;;;;34.35;17.00;;;;;;;-0.28;82.93;99036.78;5107813;28;20031;-70
2022/01/27 04:23:12;;;;;;;41.05;19.20;;;;;;;-0.25;82.98;99040.94;5093122;28;20069;-70
2022/01/27 04:25:38;;;;;;;57.38;24.33;;;;;;;-0.27;82.34;99035.75;5112458;28;20081;-70
2022/01/27 04:28:11;;;;;;;39.65;18.23;;;;;;;-0.26;82.22;99039.28;5110011;28;20027;-70
2022/01/27 04:30:36;;;;;;;84.35;29.23;;;;;;;-0.25;82.37;99027.47;5110191;28;20032;-71
2022/01/27 04:33:04;;;;;;;185.27;51.47;;;;;;;-0.25;82.53;99028.28;5109590;28;20020;-70
2022/01/27 04:35:34;;;;;;;185.27;47.15;;;;;;;-0.25;82.10;99032.84;5110849;28;20429;-71
2022/01/27 04:40:42;;;;;;;111.72;33.15;;;;;;;-0.32;82.10;99035.53;5108601;28;19920;-71
2022/01/27 04:45:48;;;;;;;97.82;30.95;;;;;;;-0.33;82.01;99040.13;5109640;28;20110;-70
2022/01/27 04:48:17;;;;;;;65.60;23.88;;;;;;;-0.29;81.59;99026.22;5110445;28;20032;-70
2022/01/27 04:50:43;;;;;;;140.82;45.65;;;;;;;-0.29;81.86;99037.00;5111068;28;20032;-71
2022/01/27 04:53:15;;;;;;;130.65;43.22;;;;;;;-0.34;81.59;99029.53;5110670;28;20016;-71
2022/01/27 04:55:41;;;;;;;121.80;44.25;;;;;;;-0.34;81.86;99029.53;5112118;28;20115;-71
2022/01/27 04:58:17;;;;;;;106.53;40.60;;;;;;;-0.33;81.93;99029.34;5111564;28;20118;-70
2022/01/27 05:00:43;;;;;;;93.95;38.35;;;;;;;-0.33;81.80;99017.72;5092625;28;20042;-71
2022/01/27 05:03:21;;;;;;;83.53;34.70;;;;;;;-0.33;82.16;99020.41;5106728;28;20027;-70
2022/01/27 05:05:47;;;;;;;60.03;27.40;;;;;;;-0.32;81.68;99008.59;5108944;27;20042;-71
2022/01/27 05:08:18;;;;;;;62.60;30.23;;;;;;;-0.28;81.95;99009.81;5109632;28;20035;-70
2022/01/27 05:10:52;;;;;;;64.05;23.30;;;;;;;-0.23;82.05;99003.81;5111531;28;20028;-71
2022/01/27 05:13:19;;;;;;;98.45;26.90;;;;;;;-0.25;81.08;98995.13;5110378;28;20103;-70
2022/01/27 05:15:45;;;;;;;49.35;19.88;;;;;;;-0.26;81.68;99001.53;5107913;28;20106;-71
2022/01/27 05:18:12;;;;;;;42.10;18.85;;;;;;;-0.28;81.26;98992.84;5107515;28;20110;-72
2022/01/27 05:20:38;;;;;;;35.70;17.27;;;;;;;-0.27;81.44;98989.09;5110799;28;20553;-71
2022/01/27 05:23:04;;;;;;;54.67;21.10;;;;;;;-0.26;81.64;98988.06;5110762;28;20027;-70
2022/01/27 05:25:30;;;;;;;43.97;18.60;;;;;;;-0.27;81.43;98984.53;5111036;28;20088;-71
2022/01/27 05:27:55;;;;;;;38.97;17.23;;;;;;;-0.27;81.10;98983.72;5109408;28;20043;-71
2022/01/27 05:30:21;;;;;;;43.35;18.25;;;;;;;-0.28;81.53;98979.38;5111113;28;20716;-70
2022/01/27 05:32:46;;;;;;;38.88;17.10;;;;;;;-0.29;81.28;98973.13;5108686;28;20391;-71
2022/01/27 05:35:12;;;;;;;41.15;18.48;;;;;;;-0.28;81.11;98974.78;5106228;28;20040;-70
2022/01/27 05:37:37;;;;;;;53.38;20.95;;;;;;;-0.29;81.21;98967.72;5106382;28;20049;-70
2022/01/27 05:40:03;;;;;;;43.67;17.30;;;;;;;-0.29;81.01;98966.91;5107793;28;20028;-70
2022/01/27 05:42:29;;;;;;;37.78;17.42;;;;;;;-0.27;81.20;98964.84;5108369;28;20042;-71
2022/01/27 05:44:54;;;;;;;40.05;16.85;;;;;;;-0.25;80.85;98965.47;5111016;28;20024;-70
2022/01/27 05:47:20;;;;;;;41.70;18.52;;;;;;;-0.26;80.81;98964.63;5092411;28;20637;-71
2022/01/27 05:49:45;;;;;;;53.67;21.83;;;;;;;-0.26;81.08;98958.41;5109728;28;20035;-70
2022/01/27 05:52:11;;;;;;;59.80;21.88;;;;;;;-0.27;81.01;98954.06;5110203;28;20084;-71
2022/01/27 05:54:36;;;;;;;85.35;29.60;;;;;;;-0.27;81.02;98956.75;5110282;27;20617;-70
2022/01/27 05:57:02;;;;;;;59.28;23.48;;;;;;;-0.29;80.72;98950.75;5109329;28;20028;-70
2022/01/27 05:59:27;;;;;;;47.55;19.58;;;;;;;-0.31;80.59;98954.47;5110910;28;20102;-70
2022/01/27 06:01:53;;;;;;;47.25;20.50;;;;;;;-0.31;80.89;98943.69;5109184;28;20061;-70
2022/01/27 06:04:18;;;;;;;40.85;17.60;;;;;;;-0.31;81.14;98945.56;5110907;28;20072;-70
2022/01/27 06:06:44;;;;;;;41.38;18.00;;;;;;;-0.29;80.81;98950.75;5110229;28;20115;-70
2022/01/27 06:09:11;;;;;;;50.90;20.98;;;;;;;-0.27;80.47;98937.88;5110796;28;20465;-70
2022/01/27 06:11:36;;;;;;;44.60;19.20;;;;;;;-0.28;80.86;98934.34;5111105;27;20111;-70
2022/01/27 06:14:02;;;;;;;45.47;18.73;;;;;;;-0.27;80.60;98932.50;5090026;28;20126;-70
2022/01/27 06:16:28;;;;;;;43.65;19.50;;;;;;;-0.27;80.57;98949.47;5107327;28;20502;-70
2022/01/27 06:18:53;;;;;;;43.28;19.08;;;;;;;-0.28;80.41;98936.22;5110425;28;20019;-70
2022/01/27 06:21:19;;;;;;;37.75;16.73;;;;;;;-0.29;80.38;98948.88;5107781;27;20037;-70
2022/01/27 06:23:45;;;;;;;42.30;17.73;;;;;;;-0.31;80.13;98937.47;5110349;28;20106;-70
2022/01/27 06:26:10;;;;;;;35.53;15.80;;;;;;;-0.32;80.64;98923.19;5091266;28;20119;-70
2022/01/27 06:28:36;;;;;;;40.55;17.15;;;;;;;-0.33;80.36;98918.81;5109931;28;20034;-70
2022/01/27 06:31:01;;;;;;;33.70;15.98;;;;;;;-0.29;80.72;98929.19;5109825;27;20034;-70
2022/01/27 06:33:27;;;;;;;42.63;19.40;;;;;;;-0.25;80.44;98938.50;5089576;28;20024;-71
2022/01/27 06:35:52;;;;;;;68.32;27.30;;;;;;;-0.27;80.61;98943.28;5109535;28;20031;-71
2022/01/27 06:38:18;;;;;;;57.50;22.65;;;;;;;-0.29;80.24;98946.16;5109567;28;20031;-71
2022/01/27 06:40:43;;;;;;;44.88;18.15;;;;;;;-0.29;80.06;98931.88;5109772;28;20047;-70
2022/01/27 06:43:13;;;;;;;45.22;19.15;;;;;;;-0.30;80.04;98933.72;5107152;28;20411;-70
2022/01/27 06:45:38;;;;;;;35.83;16.10;;;;;;;-0.29;80.22;98934.56;5109389;28;20506;-70
2022/01/27 06:48:04;;;;;;;44.70;20.55;;;;;;;-0.28;80.16;98922.75;5109010;27;20059;-70
2022/01/27 06:50:31;;;;;;;41.15;19.83;;;;;;;-0.26;80.35;98926.06;5107911;28;20490;-70
2022/01/27 06:52:57;;;;;;;39.50;17.50;;;;;;;-0.22;80.50;98932.69;5107784;28;20625;-70
2022/01/27 06:55:22;;;;;;;35.60;16.55;;;;;;;-0.19;80.24;98935.78;5109824;28;20024;-70
2022/01/27 06:57:49;;;;;;;38.28;16.30;;;;;;;-0.17;80.22;98922.91;5108480;28;20037;-70
2022/01/27 07:00:16;;;;;;;35.80;15.20;;;;;;;-0.14;80.43;98915.44;5109678;28;20020;-70
2022/01/27 07:02:42;;;;;;;35.13;17.05;;;;;;;-0.11;79.88;98906.91;5092040;28;20130;-71
2022/01/27 07:05:09;;;;;;;39.55;19.35;;;;;;;-0.10;79.85;98906.69;5109309;28;20061;-70
2022/01/27 07:07:34;;;;;;;38.00;19.88;;;;;;;-0.08;80.16;98914.56;5108335;28;20106;-71
2022/01/27 07:10:00;;;;;;;37.88;18.08;;;;;;;-0.07;79.71;98921.63;5109826;28;20083;-70
2022/01/27 07:12:25;;;;;;;35.72;17.15;;;;;;;-0.06;80.41;98917.88;5111303;28;20032;-69
2022/01/27 07:14:53;;;;;;;38.88;18.23;;;;;;;-0.05;80.23;98914.16;5110641;28;20110;-69
2022/01/27 07:17:20;;;;;;;38.85;17.85;;;;;;;-0.04;79.62;98911.22;5112798;28;20047;-70
2022/01/27 07:19:45;;;;;;;34.83;15.93;;;;;;;-0.04;79.44;98913.09;5092145;28;20031;-70
2022/01/27 07:22:11;;;;;;;37.65;16.70;;;;;;;-0.01;79.28;98918.88;5111224;28;20102;-69
2022/01/27 07:24:36;;;;;;;55.03;33.33;;;;;;;0.01;80.23;98915.94;5110513;28;20031;-72
2022/01/27 07:27:02;;;;;;;48.00;25.70;;;;;;;0.05;79.92;98917.19;5101991;28;20032;-69
2022/01/27 07:29:27;;;;;;;39.85;20.02;;;;;;;0.10;79.72;98917.34;5108741;28;20035;-69
2022/01/27 07:31:53;;;;;;;40.25;20.13;;;;;;;0.16;79.24;98895.97;5089452;28;20066;-68
2022/01/27 07:34:18;;;;;;;36.25;17.52;;;;;;;0.18;79.87;98900.13;5109529;28;20023;-68
2022/01/27 07:36:44;;;;;;;38.50;17.80;;;;;;;0.22;79.17;98906.69;5109278;28;20031;-68
2022/01/27 07:39:14;;;;;;;32.55;16.23;;;;;;;0.29;79.67;98906.69;5106708;28;20039;-68
2022/01/27 07:41:39;;;;;;;;;;;;;;;0.32;79.06;98881.97;5109355;28;20020;-68
2022/01/27 07:44:05;;;;;;;43.75;20.17;;;;;;;0.33;79.27;98877.38;5107848;28;19920;-68
2022/01/27 07:46:30;;;;;;;37.25;15.90;;;;;;;0.37;78.95;98871.34;5108138;28;20026;-70
2022/01/27 07:48:56;;;;;;;42.28;17.48;;;;;;;0.40;79.16;98879.00;5090712;28;20115;-69
2022/01/27 07:51:22;;;;;;;33.60;15.07;;;;;;;0.44;78.71;98890.16;5109186;28;20077;-69
2022/01/27 07:53:48;;;;;;;40.58;17.70;;;;;;;0.44;78.73;98876.69;5089914;28;20032;-67
2022/01/27 07:56:13;;;;;;;37.20;17.10;;;;;;;0.43;78.17;98872.31;5112382;27;20031;-68
2022/01/27 07:58:40;;;;;;;34.95;14.90;;;;;;;0.41;77.72;98861.72;5112643;27;20038;-68
2022/01/27 08:01:08;;;;;;;30.23;14.40;;;;;;;0.39;78.50;98868.41;5113477;28;20425;-68
2022/01/27 08:03:37;;;;;;;40.20;17.52;;;;;;;0.40;78.30;98857.41;5112818;28;20019;-68
2022/01/27 08:06:07;;;;;;;38.55;18.13;;;;;;;0.43;78.40;98842.63;5093355;28;20034;-70
2022/01/27 08:08:33;;;;;;;38.45;16.27;;;;;;;0.41;77.65;98842.03;5111709;28;20658;-67
2022/01/27 08:10:59;;;;;;;39.22;16.42;;;;;;;0.41;77.64;98848.25;5110876;28;20495;-68
2022/01/27 08:13:25;;;;;;;31.13;14.75;;;;;;;0.40;78.16;98861.97;5113083;27;20054;-69
2022/01/27 08:15:51;;;;;;;34.67;16.25;;;;;;;0.36;77.55;98858.88;5112442;28;20031;-69
2022/01/27 08:18:16;;;;;;;32.35;14.10;;;;;;;0.29;76.91;98856.22;5111663;28;20032;-69
2022/01/27 08:20:42;;;;;;;32.67;15.15;;;;;;;0.21;77.66;98863.78;5111160;28;20024;-69
2022/01/27 08:23:07;;;;;;;32.70;14.70;;;;;;;0.16;77.66;98872.53;5110573;28;20043;-67
2022/01/27 08:25:33;;;;;;;29.30;13.90;;;;;;;0.12;77.79;98874.81;5109789;28;20035;-68
2022/01/27 08:28:03;;;;;;;33.05;13.40;;;;;;;0.09;77.44;98869.84;5105816;28;20028;-68
2022/01/27 08:30:35;;;;;;;35.67;15.27;;;;;;;0.09;77.43;98861.75;5111133;28;20031;-69
2022/01/27 08:33:05;;;;;;;33.20;15.52;;;;;;;0.16;77.85;98850.94;5093326;28;20046;-68
2022/01/27 08:35:32;;;;;;;31.85;13.98;;;;;;;0.24;77.66;98857.94;5093167;28;20058;-69
2022/01/27 08:37:57;;;;;;;30.33;12.77;;;;;;;0.34;76.88;98843.94;5110282;28;20028;-71
2022/01/27 08:40:25;;;;;;;35.28;14.27;;;;;;;0.44;77.35;98842.41;5112488;27;20116;-67
2022/01/27 08:42:50;;;;;;;36.63;14.82;;;;;;;0.54;76.80;98836.53;5094217;28;20044;-68
2022/01/27 08:45:18;;;;;;;28.25;13.98;;;;;;;0.56;76.94;98836.28;5095056;28;20030;-69
2022/01/27 08:47:45;;;;;;;29.25;13.85;;;;;;;0.56;75.89;98836.28;5114705;28;20141;-67
2022/01/27 08:50:12;;;;;;;32.58;15.05;;;;;;;0.55;75.94;98831.94;5110792;27;20038;-67
2022/01/27 08:52:38;;;;;;;28.58;13.50;;;;;;;0.53;75.68;98845.66;5112453;27;20028;-72
2022/01/27 08:55:05;;;;;;;32.72;14.00;;;;;;;0.58;75.60;98848.53;5111479;28;20027;-70
2022/01/27 08:57:31;;;;;;;29.50;13.27;;;;;;;0.65;75.26;98842.22;5110853;27;20044;-68
2022/01/27 08:59:57;;;;;;;28.98;13.55;;;;;;;0.74;75.83;98840.91;5111928;28;20028;-67
2022/01/27 09:02:23;;;;;;;31.38;13.73;;;;;;;0.80;75.09;98840.00;5112060;28;20023;-68
2022/01/27 09:04:49;;;;;;;29.65;13.45;;;;;;;0.87;75.90;98835.38;5112285;28;20024;-67
2022/01/27 09:07:17;;;;;;;31.95;13.98;;;;;;;0.96;75.39;98827.00;5111929;27;20176;-69
2022/01/27 09:09:43;;;;;;;33.08;14.63;;;;;;;1.01;75.82;98824.44;5092913;28;20032;-69
2022/01/27 09:12:14;;;;;;;38.17;15.00;;;;;;;1.05;75.76;98825.63;5111170;27;20032;-76
2022/01/27 09:14:41;;;;;;;;;;;;;;;1.10;75.04;98816.84;5111250;28;20081;-67
2022/01/27 09:17:08;;;;;;;27.20;13.18;;;;;;;1.11;74.63;98805.81;5109933;28;19949;-67
2022/01/27 09:19:38;;;;;;;24.60;11.18;;;;;;;1.13;74.97;98808.31;5112275;27;20074;-68
2022/01/27 09:22:08;;;;;;;;;;;;;;;1.14;74.40;98796.44;5109921;28;20034;-67
2022/01/27 09:24:49;;;;;;;28.02;12.93;;;;;;;1.12;74.49;98785.03;5111280;28;20328;-67
2022/01/27 09:27:14;;;;;;;32.13;13.95;;;;;;;1.10;73.65;98782.56;5110308;28;20084;-69
2022/01/27 09:29:40;;;;;;;28.50;13.32;;;;;;;1.09;74.10;98780.09;5110416;27;20467;-66
2022/01/27 09:32:06;;;;;;;32.35;13.82;;;;;;;1.08;73.92;98768.44;5110396;28;20032;-67
2022/01/27 09:34:32;;;;;;;32.70;14.32;;;;;;;1.08;73.85;98756.81;5108338;27;20062;-69
2022/01/27 09:37:02;;;;;;;36.13;15.15;;;;;;;1.08;73.85;98770.34;5109659;28;20142;-67
2022/01/27 09:39:27;;;;;;;26.23;13.55;;;;;;;1.07;73.83;98757.88;5090996;28;20399;-67
2022/01/27 09:41:55;;;;;;;50.00;30.52;;;;;;;1.09;73.95;98755.78;5110018;28;20028;-67
2022/01/27 09:44:27;;;;;;;31.30;15.15;;;;;;;1.10;73.38;98730.41;5109055;27;20100;-67
2022/01/27 09:46:55;;;;;;;31.80;14.98;;;;;;;1.10;72.75;98725.00;5091237;28;20024;-68
2022/01/27 09:49:30;;;;;;;40.70;18.58;;;;;;;1.09;72.87;98713.38;5093965;28;20032;-69
2022/01/27 09:51:56;;;;;;;44.30;18.20;;;;;;;1.10;73.33;98715.00;5109368;27;20020;-69
2022/01/27 09:54:21;;;;;;;45.22;18.60;;;;;;;1.12;73.45;98717.50;5112177;27;20065;-70
2022/01/27 09:56:47;;;;;;;44.75;18.50;;;;;;;1.15;72.74;98700.84;5109940;27;20031;-68
2022/01/27 09:59:12;;;;;;;29.63;13.90;;;;;;;1.20;73.08;98709.09;5108817;28;20077;-68
2022/01/27 10:01:52;;;;;;;30.05;13.45;;;;;;;1.26;73.45;98718.94;5108098;28;20056;-67
2022/01/27 10:04:17;;;;;;;33.20;15.48;;;;;;;1.31;73.30;98707.47;5110422;28;20032;-68
2022/01/27 10:06:45;;;;;;;29.02;13.35;;;;;;;1.32;73.26;98706.44;5108358;28;20460;-68
2022/01/27 10:09:14;;;;;;;30.13;14.07;;;;;;;1.34;72.50;98698.91;5109305;28;20057;-67
2022/01/27 10:11:41;;;;;;;41.65;17.00;;;;;;;1.33;73.12;98697.25;5110224;28;20032;-67
2022/01/27 10:14:20;;;;;;;46.25;16.88;;;;;;;1.31;72.07;98691.25;5110487;28;20100;-68
2022/01/27 10:16:46;;;;;;;57.03;18.80;;;;;;;1.30;71.74;98693.13;5108173;28;20039;-68
2022/01/27 10:19:13;;;;;;;37.95;15.73;;;;;;;1.30;71.21;98695.03;5109334;28;20027;-68
2022/01/27 10:21:39;;;;;;;35.13;15.95;;;;;;;1.32;71.13;98680.22;5107365;28;20062;-70
2022/01/27 10:24:26;;;;;;;38.72;17.30;;;;;;;1.32;71.13;98692.91;5109598;28;20107;-70
2022/01/27 10:27:20;;;;;;;32.30;14.80;;;;;;;1.30;72.03;98701.22;5108865;28;20088;-68
2022/01/27 10:32:37;;;;;;;39.60;18.08;;;;;;;1.21;70.66;98696.38;5111552;27;20036;-69
2022/01/27 10:35:04;;;;;;;31.40;15.25;;;;;;;1.21;70.90;98691.81;5090243;28;20034;-68
2022/01/27 10:37:58;;;;;;;27.77;12.75;;;;;;;1.16;70.06;98697.91;5092677;28;20028;-68
2022/01/27 10:40:28;;;;;;;26.73;12.63;;;;;;;1.11;70.12;98686.94;5107297;28;20102;-69
2022/01/27 10:43:08;;;;;;;23.33;11.20;;;;;;;1.12;71.00;98676.97;5108103;28;20032;-69
2022/01/27 10:45:35;;;;;;;23.13;11.35;;;;;;;1.16;71.04;98672.78;5110648;27;20133;-69
2022/01/27 10:48:16;;;;;;;23.23;11.30;;;;;;;1.22;71.85;98662.91;5109980;28;20063;-69
2022/01/27 10:51:16;;;;;;;32.50;11.95;;;;;;;1.27;71.12;98661.16;5109945;28;20161;-67
2022/01/27 10:53:57;;;;;;;30.67;12.02;;;;;;;1.37;71.44;98655.22;5111249;27;20056;-71
2022/01/27 10:56:26;;;;;;;18.95;9.07;;;;;;;1.44;70.64;98644.28;5089311;28;20456;-70
2022/01/27 10:58:52;;;;;;;19.80;10.13;;;;;;;1.45;70.69;98637.84;5091722;28;20028;-70
2022/01/27 11:01:23;;;;;;;22.38;10.80;;;;;;;1.45;70.34;98638.63;5110156;28;20027;-70
2022/01/27 11:03:51;;;;;;;26.00;10.88;;;;;;;1.40;69.33;98635.00;5109639;28;20032;-69
2022/01/27 11:06:16;;;;;;;20.17;9.77;;;;;;;1.36;69.54;98626.53;5090150;28;21142;-70
2022/01/27 11:08:42;;;;;;;23.35;11.35;;;;;;;1.36;69.97;98631.09;5110793;28;20039;-69
2022/01/27 11:11:08;;;;;;;20.70;10.10;;;;;;;1.36;70.24;98631.94;5109452;28;20059;-69
2022/01/27 11:13:35;;;;;;;19.45;10.45;;;;;;;1.38;71.00;98620.88;5090028;28;20442;-69
2022/01/27 11:16:03;;;;;;;27.90;12.02;;;;;;;1.43;71.30;98618.31;5089223;28;20036;-75
2022/01/27 11:18:30;;;;;;;28.58;12.80;;;;;;;1.42;70.42;98613.97;5107459;28;20483;-68
2022/01/27 11:21:04;;;;;;;25.95;11.48;;;;;;;1.39;70.67;98623.38;5106517;28;20518;-69
2022/01/27 11:26:11;;;;;;;25.25;11.50;;;;;;;1.29;71.16;98598.78;5105181;28;20024;-70
2022/01/27 11:28:41;;;;;;;25.80;12.77;;;;;;;1.28;70.64;98583.63;5089525;28;20106;-69
2022/01/27 11:31:25;;;;;;;22.80;11.05;;;;;;;1.26;70.66;98581.16;5111551;28;20102;-68
2022/01/27 11:34:07;;;;;;;31.45;13.63;;;;;;;1.27;70.87;98584.69;5109959;28;20383;-71
2022/01/27 11:36:33;;;;;;;29.42;13.07;;;;;;;1.31;71.29;98586.69;5106935;27;20069;-68
2022/01/27 11:39:00;;;;;;;22.95;10.90;;;;;;;1.32;71.65;98584.81;5113484;27;20031;-68
2022/01/27 11:41:34;;;;;;;22.77;10.30;;;;;;;1.33;71.12;98591.88;5112762;28;20023;-68
2022/01/27 11:44:18;;;;;;;27.40;12.55;;;;;;;1.29;70.59;98610.41;5111298;27;20124;-68
2022/01/27 11:47:14;;;;;;;25.17;11.77;;;;;;;1.23;70.66;98610.53;5113653;27;20414;-69
2022/01/27 11:49:54;;;;;;;24.80;10.98;;;;;;;1.19;71.52;98600.19;5094034;28;20040;-68
2022/01/27 11:52:42;;;;;;;;;;;;;;;1.22;71.24;98593.50;5115876;27;20463;-69
2022/01/27 11:55:23;;;;;;;21.02;9.93;;;;;;;1.26;71.27;98583.84;5083417;28;20010;-69
2022/01/27 11:57:50;;;;;;;22.95;10.50;;;;;;;1.27;70.91;98580.09;5113274;28;20035;-69
2022/01/27 12:00:38;;;;;;;23.02;10.52;;;;;;;1.26;70.91;98574.94;5114074;27;20183;-69
2022/01/27 12:03:04;;;;;;;27.25;11.18;;;;;;;1.29;71.00;98567.19;5093328;28;20072;-69
2022/01/27 12:05:34;;;;;;;22.88;11.25;;;;;;;1.33;71.94;98551.34;5114462;28;20023;-69
2022/01/27 12:08:09;;;;;;;20.10;10.65;;;;;;;1.34;71.26;98544.88;5112336;27;20475;-70
2022/01/27 12:10:50;;;;;;;20.60;10.30;;;;;;;1.28;70.73;98553.91;5110555;27;20432;-69
2022/01/27 12:13:38;;;;;;;19.50;9.65;;;;;;;1.21;71.50;98532.41;5095514;28;20042;-69